createdAt,value
2023-03-22T00:00:11.087Z,83.08
2023-03-22T00:01:11.076Z,83.22
2023-03-22T00:02:11.185Z,82.77
2023-03-22T00:03:11.087Z,82.60
2023-03-22T00:04:11.192Z,82.46
2023-03-22T00:05:11.087Z,82.86
2023-03-22T00:06:11.088Z,82.90
2023-03-22T00:07:11.076Z,82.69
2023-03-22T00:08:11.093Z,82.87
2023-03-22T00:09:11.089Z,82.89
2023-03-22T00:10:11.076Z,82.72
2023-03-22T00:11:11.080Z,82.60
2023-03-22T00:12:11.087Z,82.59
2023-03-22T00:13:11.082Z,82.74
2023-03-22T00:14:11.077Z,82.83
2023-03-22T00:15:11.084Z,83.10
2023-03-22T00:16:11.206Z,82.67
2023-03-22T00:17:11.075Z,82.63
2023-03-22T00:18:11.080Z,82.60
2023-03-22T00:19:11.078Z,82.35
2023-03-22T00:20:11.077Z,82.05
2023-03-22T00:21:13.097Z,82.24
2023-03-22T00:22:11.079Z,82.25
2023-03-22T00:23:11.079Z,82.10
2023-03-22T00:24:11.081Z,82.09
2023-03-22T00:25:11.078Z,81.96
2023-03-22T00:26:11.095Z,82.12
2023-03-22T00:27:11.078Z,81.91
2023-03-22T00:28:11.077Z,81.97
2023-03-22T00:29:11.075Z,82.03
2023-03-22T00:30:11.087Z,82.09
2023-03-22T00:31:11.091Z,82.20
2023-03-22T00:32:11.075Z,82.15
2023-03-22T00:33:11.086Z,82.28
2023-03-22T00:34:11.085Z,82.09
2023-03-22T00:35:11.076Z,82.08
2023-03-22T00:36:11.129Z,82.39
2023-03-22T00:37:11.090Z,82.31
2023-03-22T00:38:11.079Z,81.97
2023-03-22T00:39:11.084Z,82.14
2023-03-22T00:40:13.086Z,81.90
2023-03-22T00:41:15.077Z,82.11
2023-03-22T00:42:11.085Z,82.18
2023-03-22T00:43:11.084Z,82.28
2023-03-22T00:44:11.085Z,82.40
2023-03-22T00:45:12.110Z,82.24
2023-03-22T00:46:11.133Z,82.26
2023-03-22T00:47:11.083Z,82.17
2023-03-22T00:48:13.135Z,82.16
2023-03-22T00:49:11.084Z,82.06
2023-03-22T00:50:11.080Z,82.20
2023-03-22T00:51:11.094Z,82.14
2023-03-22T00:52:11.088Z,82.23
2023-03-22T00:53:11.081Z,82.15
2023-03-22T00:54:11.086Z,82.20
2023-03-22T00:55:11.087Z,82.17
2023-03-22T00:56:11.082Z,82.23
2023-03-22T00:57:11.089Z,82.41
2023-03-22T00:58:11.086Z,82.11
2023-03-22T00:59:11.082Z,82.34
2023-03-22T01:00:15.090Z,82.32
2023-03-22T01:01:11.066Z,82.34
2023-03-22T01:02:11.067Z,82.20
2023-03-22T01:03:11.107Z,82.35
2023-03-22T01:04:11.062Z,82.45
2023-03-22T01:05:11.067Z,82.64
2023-03-22T01:06:11.080Z,82.76
2023-03-22T01:07:11.061Z,82.68
2023-03-22T01:08:12.091Z,82.96
2023-03-22T01:09:11.061Z,82.78
2023-03-22T01:10:11.065Z,82.62
2023-03-22T01:11:11.065Z,82.60
2023-03-22T01:12:11.065Z,82.74
2023-03-22T01:13:11.060Z,82.55
2023-03-22T01:14:11.062Z,82.72
2023-03-22T01:15:11.061Z,82.80
2023-03-22T01:16:11.096Z,82.80
2023-03-22T01:17:11.071Z,82.66
2023-03-22T01:18:11.064Z,82.84
2023-03-22T01:19:11.065Z,82.92
2023-03-22T01:20:11.065Z,82.88
2023-03-22T01:21:11.064Z,83.15
2023-03-22T01:22:11.067Z,83.57
2023-03-22T01:23:11.061Z,83.41
2023-03-22T01:24:11.060Z,83.14
2023-03-22T01:25:11.061Z,83.44
2023-03-22T01:26:11.066Z,83.60
2023-03-22T01:27:11.061Z,83.51
2023-03-22T01:28:11.070Z,83.52
2023-03-22T01:29:11.063Z,83.61
2023-03-22T01:30:11.058Z,83.45
2023-03-22T01:31:11.121Z,83.65
2023-03-22T01:32:11.070Z,83.97
2023-03-22T01:33:11.058Z,84.03
2023-03-22T01:34:11.061Z,83.80
2023-03-22T01:35:11.072Z,84.11
2023-03-22T01:36:11.061Z,84.35
2023-03-22T01:37:11.068Z,84.55
2023-03-22T01:38:11.064Z,84.72
2023-03-22T01:39:11.060Z,84.54
2023-03-22T01:40:11.067Z,84.50
2023-03-22T01:41:11.066Z,84.52
2023-03-22T01:42:14.065Z,84.27
2023-03-22T01:43:14.070Z,84.55
2023-03-22T01:44:18.066Z,84.47
2023-03-22T01:45:19.064Z,84.59
2023-03-22T01:46:11.137Z,84.66
2023-03-22T01:47:11.072Z,84.68
2023-03-22T01:48:17.187Z,84.49
2023-03-22T01:49:15.108Z,84.30
2023-03-22T01:50:11.068Z,84.63
2023-03-22T01:51:17.079Z,84.83
2023-03-22T01:52:12.095Z,84.67
2023-03-22T01:53:12.068Z,84.79
2023-03-22T01:54:12.069Z,85.02
2023-03-22T01:55:11.082Z,84.93
2023-03-22T01:56:11.088Z,85.29
2023-03-22T01:57:11.071Z,85.11
2023-03-22T01:58:11.073Z,85.01
2023-03-22T01:59:12.076Z,85.35
2023-03-22T02:00:14.076Z,85.33
2023-03-22T02:01:11.121Z,85.31
2023-03-22T02:02:11.066Z,85.24
2023-03-22T02:03:11.073Z,85.30
2023-03-22T02:04:12.072Z,85.66
2023-03-22T02:05:11.072Z,85.71
2023-03-22T02:06:11.075Z,85.74
2023-03-22T02:07:15.073Z,86.00
2023-03-22T02:08:11.068Z,86.18
2023-03-22T02:09:11.081Z,86.08
2023-03-22T02:10:13.078Z,86.37
2023-03-22T02:11:15.070Z,86.53
2023-03-22T02:12:21.076Z,86.22
2023-03-22T02:13:21.081Z,86.21
2023-03-22T02:14:19.075Z,86.18
2023-03-22T02:15:18.068Z,86.14
2023-03-22T02:16:23.072Z,86.40
2023-03-22T02:17:19.073Z,86.45
2023-03-22T02:18:19.081Z,86.52
2023-03-22T02:19:20.069Z,86.64
2023-03-22T02:20:20.069Z,86.53
2023-03-22T02:21:19.070Z,86.47
2023-03-22T02:22:19.082Z,86.62
2023-03-22T02:23:19.072Z,86.70
2023-03-22T02:24:23.070Z,86.90
2023-03-22T02:25:19.078Z,87.09
2023-03-22T02:26:19.071Z,87.13
2023-03-22T02:27:19.086Z,87.08
2023-03-22T02:28:23.072Z,87.11
2023-03-22T02:29:22.102Z,87.13
2023-03-22T02:30:19.072Z,86.88
2023-03-22T02:31:21.152Z,87.12
2023-03-22T02:32:19.073Z,87.30
2023-03-22T02:33:19.073Z,87.51
2023-03-22T02:34:21.071Z,87.81
2023-03-22T02:35:21.125Z,87.70
2023-03-22T02:36:21.075Z,87.67
2023-03-22T02:37:21.077Z,88.16
2023-03-22T02:38:21.080Z,88.10
2023-03-22T02:39:19.073Z,88.32
2023-03-22T02:40:19.071Z,88.21
2023-03-22T02:41:19.074Z,88.52
2023-03-22T02:42:19.072Z,88.63
2023-03-22T02:43:19.082Z,88.84
2023-03-22T02:44:19.075Z,88.80
2023-03-22T02:45:21.074Z,88.63
2023-03-22T02:46:21.100Z,88.38
2023-03-22T02:47:19.076Z,88.12
2023-03-22T02:48:17.158Z,88.21
2023-03-22T02:49:16.073Z,88.40
2023-03-22T02:50:19.074Z,88.62
2023-03-22T02:51:18.091Z,88.93
2023-03-22T02:52:18.074Z,89.13
2023-03-22T02:53:18.071Z,89.47
2023-03-22T02:54:22.069Z,89.51
2023-03-22T02:55:19.072Z,89.52
2023-03-22T02:56:16.081Z,89.43
2023-03-22T02:57:16.077Z,89.23
2023-03-22T02:58:21.070Z,89.52
2023-03-22T02:59:11.075Z,89.26
2023-03-22T03:00:15.082Z,89.39
2023-03-22T03:01:12.098Z,89.87
2023-03-22T03:02:13.165Z,89.97
2023-03-22T03:03:15.087Z,90.04
2023-03-22T03:04:17.071Z,89.92
2023-03-22T03:05:12.071Z,90.23
2023-03-22T03:06:17.076Z,90.07
2023-03-22T03:07:12.081Z,90.04
2023-03-22T03:08:11.087Z,90.01
2023-03-22T03:09:11.074Z,89.63
2023-03-22T03:10:12.081Z,89.40
2023-03-22T03:11:11.074Z,89.43
2023-03-22T03:12:19.071Z,89.50
2023-03-22T03:13:14.084Z,89.60
2023-03-22T03:14:19.073Z,89.56
2023-03-22T03:15:15.077Z,89.61
2023-03-22T03:16:14.114Z,89.62
2023-03-22T03:17:19.078Z,89.83
2023-03-22T03:18:21.073Z,89.54
2023-03-22T03:19:19.073Z,89.72
2023-03-22T03:20:20.096Z,90.19
2023-03-22T03:21:19.088Z,90.28
2023-03-22T03:22:21.079Z,90.27
2023-03-22T03:23:19.082Z,90.41
2023-03-22T03:24:22.077Z,90.51
2023-03-22T03:25:21.080Z,90.69
2023-03-22T03:26:19.093Z,90.37
2023-03-22T03:27:21.078Z,90.19
2023-03-22T03:28:17.099Z,90.34
2023-03-22T03:29:19.077Z,90.32
2023-03-22T03:30:13.083Z,90.57
2023-03-22T03:31:19.093Z,90.64
2023-03-22T03:32:19.076Z,90.92
2023-03-22T03:33:14.078Z,90.72
2023-03-22T03:34:18.083Z,90.58
2023-03-22T03:35:15.104Z,90.82
2023-03-22T03:36:12.075Z,90.98
2023-03-22T03:37:15.081Z,90.81
2023-03-22T03:38:16.085Z,90.84
2023-03-22T03:39:14.075Z,90.83
2023-03-22T03:40:17.077Z,90.67
2023-03-22T03:41:15.101Z,90.54
2023-03-22T03:42:13.080Z,90.35
2023-03-22T03:43:11.077Z,90.41
2023-03-22T03:44:11.086Z,90.40
2023-03-22T03:45:11.091Z,90.39
2023-03-22T03:46:11.117Z,90.57
2023-03-22T03:47:11.086Z,90.59
2023-03-22T03:48:18.146Z,90.40
2023-03-22T03:49:12.089Z,90.32
2023-03-22T03:50:11.083Z,90.64
2023-03-22T03:51:11.089Z,90.49
2023-03-22T03:52:11.076Z,90.38
2023-03-22T03:53:11.086Z,90.19
2023-03-22T03:54:11.088Z,90.26
2023-03-22T03:55:11.082Z,90.23
2023-03-22T03:56:11.088Z,90.16
2023-03-22T03:57:11.084Z,90.22
2023-03-22T03:58:11.084Z,90.25
2023-03-22T03:59:12.085Z,90.39
2023-03-22T04:00:11.089Z,90.76
2023-03-22T04:01:11.057Z,90.62
2023-03-22T04:02:11.086Z,90.62
2023-03-22T04:03:11.067Z,90.52
2023-03-22T04:04:11.141Z,90.29
2023-03-22T04:05:11.068Z,90.41
2023-03-22T04:06:11.072Z,90.36
2023-03-22T04:07:11.070Z,90.40
2023-03-22T04:08:11.070Z,90.70
2023-03-22T04:09:11.059Z,90.55
2023-03-22T04:10:11.069Z,90.85
2023-03-22T04:11:11.072Z,91.01
2023-03-22T04:12:11.061Z,90.79
2023-03-22T04:13:11.067Z,90.87
2023-03-22T04:14:11.076Z,90.88
2023-03-22T04:15:11.062Z,90.76
2023-03-22T04:16:11.066Z,90.92
2023-03-22T04:17:11.066Z,90.93
2023-03-22T04:18:11.062Z,90.92
2023-03-22T04:19:11.069Z,90.80
2023-03-22T04:20:11.065Z,90.74
2023-03-22T04:21:11.065Z,90.70
2023-03-22T04:22:11.065Z,91.07
2023-03-22T04:23:11.082Z,91.30
2023-03-22T04:24:11.066Z,91.49
2023-03-22T04:25:12.072Z,91.63
2023-03-22T04:26:11.070Z,91.38
2023-03-22T04:27:11.062Z,91.31
2023-03-22T04:28:11.069Z,91.44
2023-03-22T04:29:11.066Z,91.57
2023-03-22T04:30:13.064Z,91.92
2023-03-22T04:31:11.201Z,92.09
2023-03-22T04:32:11.065Z,92.08
2023-03-22T04:33:11.061Z,91.94
2023-03-22T04:34:11.073Z,92.15
2023-03-22T04:35:11.067Z,92.07
2023-03-22T04:36:11.068Z,92.04
2023-03-22T04:37:11.082Z,92.34
2023-03-22T04:38:11.063Z,92.52
2023-03-22T04:39:12.072Z,92.69
2023-03-22T04:40:11.074Z,92.59
2023-03-22T04:41:11.064Z,92.46
2023-03-22T04:42:11.070Z,92.50
2023-03-22T04:43:13.325Z,92.71
2023-03-22T04:44:11.062Z,92.81
2023-03-22T04:45:11.070Z,92.74
2023-03-22T04:46:11.168Z,92.44
2023-03-22T04:47:11.063Z,92.24
2023-03-22T04:48:11.155Z,92.19
2023-03-22T04:49:11.073Z,92.48
2023-03-22T04:50:11.066Z,92.63
2023-03-22T04:51:11.090Z,92.45
2023-03-22T04:52:11.073Z,92.42
2023-03-22T04:53:11.065Z,92.29
2023-03-22T04:54:11.070Z,92.44
2023-03-22T04:55:11.076Z,92.64
2023-03-22T04:56:12.094Z,92.44
2023-03-22T04:57:11.067Z,92.46
2023-03-22T04:58:11.069Z,92.32
2023-03-22T04:59:11.064Z,92.58
2023-03-22T05:00:13.070Z,92.77
2023-03-22T05:01:11.178Z,92.49
2023-03-22T05:02:11.062Z,92.03
2023-03-22T05:03:11.163Z,92.26
2023-03-22T05:04:11.068Z,92.62
2023-03-22T05:05:11.065Z,92.60
2023-03-22T05:06:11.074Z,92.37
2023-03-22T05:07:11.066Z,92.27
2023-03-22T05:08:11.063Z,92.20
2023-03-22T05:09:11.074Z,92.12
2023-03-22T05:10:11.080Z,92.22
2023-03-22T05:11:17.088Z,92.26
2023-03-22T05:12:11.086Z,92.06
2023-03-22T05:13:11.069Z,92.07
2023-03-22T05:14:11.091Z,92.11
2023-03-22T05:15:11.079Z,91.92
2023-03-22T05:16:11.156Z,91.89
2023-03-22T05:17:11.082Z,91.93
2023-03-22T05:18:11.071Z,92.02
2023-03-22T05:19:11.069Z,91.94
2023-03-22T05:20:14.071Z,91.89
2023-03-22T05:21:15.076Z,91.99
2023-03-22T05:22:11.067Z,91.85
2023-03-22T05:23:11.064Z,91.60
2023-03-22T05:24:11.073Z,91.65
2023-03-22T05:25:11.069Z,91.75
2023-03-22T05:26:12.067Z,91.72
2023-03-22T05:27:11.073Z,91.63
2023-03-22T05:28:11.072Z,91.58
2023-03-22T05:29:11.086Z,91.28
2023-03-22T05:30:11.073Z,91.35
2023-03-22T05:31:11.203Z,91.18
2023-03-22T05:32:11.066Z,90.96
2023-03-22T05:33:11.072Z,90.84
2023-03-22T05:34:11.068Z,90.71
2023-03-22T05:35:11.074Z,90.40
2023-03-22T05:36:11.086Z,90.41
2023-03-22T05:37:11.069Z,90.26
2023-03-22T05:38:11.072Z,90.06
2023-03-22T05:39:11.079Z,89.99
2023-03-22T05:40:13.071Z,89.54
2023-03-22T05:41:11.071Z,89.39
2023-03-22T05:42:11.077Z,89.03
2023-03-22T05:43:11.079Z,88.89
2023-03-22T05:44:11.072Z,88.85
2023-03-22T05:45:11.110Z,88.57
2023-03-22T05:46:11.075Z,88.49
2023-03-22T05:47:11.072Z,87.96
2023-03-22T05:48:11.188Z,88.00
2023-03-22T05:49:12.168Z,87.57
2023-03-22T05:50:15.075Z,87.15
2023-03-22T05:51:13.082Z,87.12
2023-03-22T05:52:11.077Z,86.68
2023-03-22T05:53:11.078Z,86.48
2023-03-22T05:54:11.077Z,86.41
2023-03-22T05:55:11.080Z,86.08
2023-03-22T05:56:13.077Z,86.15
2023-03-22T05:57:11.096Z,85.79
2023-03-22T05:58:11.091Z,84.91
2023-03-22T05:59:11.081Z,84.59
2023-03-22T06:00:13.093Z,84.10
2023-03-22T06:01:11.082Z,83.80
2023-03-22T06:02:11.161Z,83.64
2023-03-22T06:03:11.139Z,83.54
2023-03-22T06:04:11.084Z,82.89
2023-03-22T06:05:11.093Z,83.00
2023-03-22T06:06:11.087Z,82.12
2023-03-22T06:07:11.081Z,82.19
2023-03-22T06:08:11.082Z,81.78
2023-03-22T06:09:17.424Z,81.94
2023-03-22T06:10:15.412Z,81.50
2023-03-22T06:11:11.083Z,81.48
2023-03-22T06:12:11.078Z,81.59
2023-03-22T06:13:11.115Z,81.31
2023-03-22T06:14:11.120Z,80.93
2023-03-22T06:15:11.110Z,80.57
2023-03-22T06:16:11.150Z,80.42
2023-03-22T06:17:11.094Z,80.14
2023-03-22T06:18:11.087Z,80.28
2023-03-22T06:19:11.090Z,79.86
2023-03-22T06:20:15.093Z,79.84
2023-03-22T06:21:11.086Z,80.06
2023-03-22T06:22:11.082Z,80.02
2023-03-22T06:23:11.089Z,79.91
2023-03-22T06:24:11.086Z,79.97
2023-03-22T06:25:11.085Z,79.91
2023-03-22T06:26:11.086Z,79.81
2023-03-22T06:27:11.088Z,79.79
2023-03-22T06:28:11.083Z,79.71
2023-03-22T06:29:11.081Z,79.58
2023-03-22T06:30:11.085Z,79.70
2023-03-22T06:31:11.134Z,79.73
2023-03-22T06:32:11.081Z,79.93
2023-03-22T06:33:11.092Z,79.63
2023-03-22T06:34:11.076Z,79.76
2023-03-22T06:35:11.078Z,79.92
2023-03-22T06:36:11.090Z,79.78
2023-03-22T06:37:11.080Z,79.59
2023-03-22T06:38:11.104Z,79.12
2023-03-22T06:39:11.085Z,79.61
2023-03-22T06:40:11.080Z,79.42
2023-03-22T06:41:11.073Z,79.58
2023-03-22T06:42:11.109Z,79.43
2023-03-22T06:43:11.077Z,79.40
2023-03-22T06:44:11.074Z,79.28
2023-03-22T06:45:11.078Z,79.20
2023-03-22T06:46:11.164Z,79.26
2023-03-22T06:47:11.072Z,79.29
2023-03-22T06:48:11.113Z,79.16
2023-03-22T06:49:11.078Z,79.28
2023-03-22T06:50:11.072Z,79.31
2023-03-22T06:51:11.076Z,79.27
2023-03-22T06:52:11.077Z,79.41
2023-03-22T06:53:11.081Z,79.52
2023-03-22T06:54:11.074Z,79.58
2023-03-22T06:55:11.083Z,79.42
2023-03-22T06:56:11.073Z,79.45
2023-03-22T06:57:11.077Z,79.38
2023-03-22T06:58:11.086Z,79.36
2023-03-22T06:59:11.080Z,79.27
2023-03-22T07:00:11.077Z,79.05
2023-03-22T07:01:11.176Z,79.09
2023-03-22T07:02:12.074Z,78.77
2023-03-22T07:03:11.061Z,78.87
2023-03-22T07:04:11.136Z,78.44
2023-03-22T07:05:11.069Z,78.35
2023-03-22T07:06:11.058Z,77.87
2023-03-22T07:07:11.058Z,77.92
2023-03-22T07:08:11.060Z,77.97
2023-03-22T07:09:11.057Z,77.75
2023-03-22T07:10:11.065Z,77.28
2023-03-22T07:11:11.059Z,77.37
2023-03-22T07:12:11.068Z,77.31
2023-03-22T07:13:11.062Z,77.30
2023-03-22T07:14:11.060Z,76.86
2023-03-22T07:15:11.059Z,76.66
2023-03-22T07:16:11.104Z,76.72
2023-03-22T07:17:11.067Z,76.55
2023-03-22T07:18:11.061Z,76.41
2023-03-22T07:19:11.062Z,76.00
2023-03-22T07:20:11.076Z,75.97
2023-03-22T07:21:11.062Z,75.95
2023-03-22T07:22:11.074Z,75.76
2023-03-22T07:23:11.071Z,75.92
2023-03-22T07:24:11.059Z,75.90
2023-03-22T07:25:11.066Z,75.91
2023-03-22T07:26:11.069Z,75.72
2023-03-22T07:27:11.079Z,75.48
2023-03-22T07:28:11.056Z,75.54
2023-03-22T07:29:11.072Z,75.50
2023-03-22T07:30:11.061Z,75.16
2023-03-22T07:31:11.058Z,75.13
2023-03-22T07:32:11.139Z,75.10
2023-03-22T07:33:11.066Z,75.20
2023-03-22T07:34:11.094Z,75.16
2023-03-22T07:35:11.063Z,75.20
2023-03-22T07:36:11.063Z,75.12
2023-03-22T07:37:12.064Z,75.13
2023-03-22T07:38:11.069Z,75.20
2023-03-22T07:39:11.064Z,75.13
2023-03-22T07:40:11.069Z,75.27
2023-03-22T07:41:11.070Z,74.93
2023-03-22T07:42:11.067Z,74.84
2023-03-22T07:43:11.065Z,75.09
2023-03-22T07:44:17.712Z,74.92
2023-03-22T07:45:13.953Z,75.05
2023-03-22T07:46:11.141Z,74.90
2023-03-22T07:47:11.067Z,74.95
2023-03-22T07:48:11.090Z,75.16
2023-03-22T07:49:11.070Z,75.23
2023-03-22T07:50:11.069Z,75.45
2023-03-22T07:51:11.071Z,75.23
2023-03-22T07:52:11.068Z,75.28
2023-03-22T07:53:11.070Z,75.31
2023-03-22T07:54:14.048Z,75.38
2023-03-22T07:55:13.071Z,75.58
2023-03-22T07:56:11.070Z,75.51
2023-03-22T07:57:11.085Z,75.61
2023-03-22T07:58:11.079Z,75.85
2023-03-22T07:59:11.105Z,75.93
2023-03-22T08:00:11.072Z,76.02
2023-03-22T08:01:12.074Z,75.99
2023-03-22T08:02:11.178Z,75.87
2023-03-22T08:03:13.111Z,75.89
2023-03-22T08:04:11.073Z,75.92
2023-03-22T08:05:11.226Z,75.66
2023-03-22T08:06:11.081Z,75.46
2023-03-22T08:07:13.076Z,75.22
2023-03-22T08:08:11.074Z,74.89
2023-03-22T08:09:12.071Z,74.62
2023-03-22T08:10:11.103Z,74.58
2023-03-22T08:11:11.092Z,74.44
2023-03-22T08:12:11.071Z,74.20
2023-03-22T08:13:11.074Z,73.78
2023-03-22T08:14:11.092Z,73.68
2023-03-22T08:15:11.072Z,73.17
2023-03-22T08:16:11.136Z,72.96
2023-03-22T08:17:11.084Z,72.80
2023-03-22T08:18:12.070Z,72.13
2023-03-22T08:19:11.078Z,71.77
2023-03-22T08:20:13.079Z,72.07
2023-03-22T08:21:11.091Z,72.39
2023-03-22T08:22:11.071Z,72.17
2023-03-22T08:23:11.074Z,71.59
2023-03-22T08:24:11.075Z,71.06
2023-03-22T08:25:11.077Z,70.67
2023-03-22T08:26:11.145Z,70.28
2023-03-22T08:27:11.080Z,69.88
2023-03-22T08:28:11.072Z,70.09
2023-03-22T08:29:11.073Z,69.90
2023-03-22T08:30:11.102Z,69.47
2023-03-22T08:31:15.398Z,69.35
2023-03-22T08:32:11.136Z,69.16
2023-03-22T08:33:11.083Z,69.28
2023-03-22T08:34:11.077Z,69.05
2023-03-22T08:35:11.090Z,68.63
2023-03-22T08:36:14.094Z,68.51
2023-03-22T08:37:11.078Z,68.24
2023-03-22T08:38:11.075Z,68.04
2023-03-22T08:39:11.080Z,67.83
2023-03-22T08:40:12.245Z,67.75
2023-03-22T08:41:11.074Z,67.82
2023-03-22T08:42:11.090Z,67.60
2023-03-22T08:43:11.080Z,67.80
2023-03-22T08:44:11.078Z,67.46
2023-03-22T08:45:11.088Z,67.48
2023-03-22T08:46:11.139Z,67.33
2023-03-22T08:47:11.077Z,67.36
2023-03-22T08:48:11.197Z,67.19
2023-03-22T08:49:11.073Z,66.44
2023-03-22T08:50:11.080Z,66.12
2023-03-22T08:51:11.096Z,66.01
2023-03-22T08:52:11.072Z,66.08
2023-03-22T08:53:11.093Z,65.71
2023-03-22T08:54:11.083Z,65.63
2023-03-22T08:55:11.082Z,65.70
2023-03-22T08:56:11.076Z,65.68
2023-03-22T08:57:13.098Z,65.42
2023-03-22T08:58:13.076Z,65.41
2023-03-22T08:59:11.088Z,64.95
2023-03-22T09:00:11.074Z,65.08
2023-03-22T09:01:13.226Z,65.27
2023-03-22T09:02:11.175Z,64.90
2023-03-22T09:03:11.076Z,65.05
2023-03-22T09:04:11.081Z,65.11
2023-03-22T09:05:11.075Z,64.59
2023-03-22T09:06:11.074Z,64.55
2023-03-22T09:07:11.076Z,63.88
2023-03-22T09:08:18.491Z,63.91
2023-03-22T09:09:13.114Z,63.73
2023-03-22T09:10:11.083Z,63.85
2023-03-22T09:11:11.076Z,63.90
2023-03-22T09:12:11.081Z,64.11
2023-03-22T09:13:11.077Z,63.91
2023-03-22T09:14:11.081Z,63.67
2023-03-22T09:15:11.092Z,63.55
2023-03-22T09:16:11.133Z,63.81
2023-03-22T09:17:11.077Z,63.81
2023-03-22T09:18:11.079Z,63.51
2023-03-22T09:19:11.080Z,63.17
2023-03-22T09:20:12.965Z,62.54
2023-03-22T09:21:11.081Z,61.69
2023-03-22T09:22:11.086Z,61.27
2023-03-22T09:23:11.078Z,61.24
2023-03-22T09:24:11.075Z,61.21
2023-03-22T09:25:12.773Z,60.82
2023-03-22T09:26:11.076Z,61.32
2023-03-22T09:27:11.077Z,61.40
2023-03-22T09:28:11.186Z,61.18
2023-03-22T09:29:11.099Z,61.06
2023-03-22T09:30:11.077Z,60.93
2023-03-22T09:31:11.302Z,60.80
2023-03-22T09:32:11.081Z,60.81
2023-03-22T09:33:11.076Z,60.07
2023-03-22T09:34:11.095Z,59.98
2023-03-22T09:35:11.081Z,60.62
2023-03-22T09:36:11.072Z,59.98
2023-03-22T09:37:11.077Z,59.88
2023-03-22T09:38:11.082Z,59.61
2023-03-22T09:39:11.078Z,59.70
2023-03-22T09:40:11.081Z,59.87
2023-03-22T09:41:20.083Z,59.53
2023-03-22T09:42:19.076Z,59.21
2023-03-22T09:43:13.080Z,58.60
2023-03-22T09:44:15.087Z,59.34
2023-03-22T09:45:19.080Z,59.23
2023-03-22T09:46:17.167Z,58.87
2023-03-22T09:47:16.083Z,58.33
2023-03-22T09:48:21.208Z,58.38
2023-03-22T09:49:17.115Z,58.59
2023-03-22T09:50:18.077Z,58.19
2023-03-22T09:51:19.083Z,57.98
2023-03-22T09:52:15.177Z,57.55
2023-03-22T09:53:13.093Z,57.79
2023-03-22T09:54:15.096Z,57.79
2023-03-22T09:55:20.080Z,57.15
2023-03-22T09:56:17.080Z,57.76
2023-03-22T09:57:16.092Z,57.18
2023-03-22T09:58:19.108Z,57.17
2023-03-22T09:59:19.084Z,56.95
2023-03-22T10:00:20.122Z,56.77
2023-03-22T10:01:21.006Z,56.50
2023-03-22T10:02:19.230Z,56.47
2023-03-22T10:03:19.054Z,56.46
2023-03-22T10:04:21.110Z,56.05
2023-03-22T10:05:19.069Z,55.72
2023-03-22T10:06:18.069Z,55.97
2023-03-22T10:07:21.077Z,55.55
2023-03-22T10:08:19.056Z,55.41
2023-03-22T10:09:19.059Z,55.28
2023-03-22T10:10:14.057Z,55.33
2023-03-22T10:11:19.057Z,55.46
2023-03-22T10:12:19.057Z,55.32
2023-03-22T10:13:21.061Z,54.88
2023-03-22T10:14:21.058Z,55.07
2023-03-22T10:15:19.064Z,54.79
2023-03-22T10:16:13.135Z,55.21
2023-03-22T10:17:19.064Z,55.14
2023-03-22T10:18:15.060Z,54.68
2023-03-22T10:19:21.074Z,54.24
2023-03-22T10:20:22.072Z,54.35
2023-03-22T10:21:14.060Z,54.04
2023-03-22T10:22:12.057Z,54.59
2023-03-22T10:23:16.069Z,53.87
2023-03-22T10:24:17.065Z,53.79
2023-03-22T10:25:15.062Z,54.14
2023-03-22T10:26:15.061Z,53.70
2023-03-22T10:27:15.077Z,53.61
2023-03-22T10:28:20.066Z,53.70
2023-03-22T10:29:21.069Z,54.11
2023-03-22T10:30:16.065Z,53.91
2023-03-22T10:31:16.111Z,53.40
2023-03-22T10:32:18.094Z,53.82
2023-03-22T10:33:19.078Z,53.80
2023-03-22T10:34:19.063Z,54.22
2023-03-22T10:35:14.062Z,53.72
2023-03-22T10:36:14.067Z,53.26
2023-03-22T10:37:18.070Z,53.40
2023-03-22T10:38:19.066Z,53.47
2023-03-22T10:39:19.065Z,54.20
2023-03-22T10:40:17.072Z,53.80
2023-03-22T10:41:11.061Z,53.56
2023-03-22T10:42:19.061Z,53.99
2023-03-22T10:43:19.075Z,53.97
2023-03-22T10:44:14.062Z,53.84
2023-03-22T10:45:13.090Z,54.29
2023-03-22T10:46:18.100Z,54.60
2023-03-22T10:47:12.071Z,55.18
2023-03-22T10:48:20.144Z,55.07
2023-03-22T10:49:17.069Z,55.32
2023-03-22T10:50:19.067Z,54.80
2023-03-22T10:51:17.073Z,54.96
2023-03-22T10:52:21.067Z,55.44
2023-03-22T10:53:19.067Z,54.78
2023-03-22T10:54:14.067Z,54.24
2023-03-22T10:55:16.078Z,54.35
2023-03-22T10:56:17.075Z,54.70
2023-03-22T10:57:11.073Z,54.62
2023-03-22T10:58:18.073Z,54.45
2023-03-22T10:59:15.076Z,54.33
2023-03-22T11:00:17.098Z,54.53
2023-03-22T11:01:11.271Z,54.31
2023-03-22T11:02:19.241Z,53.81
2023-03-22T11:03:15.108Z,54.21
2023-03-22T11:04:16.090Z,53.65
2023-03-22T11:05:19.068Z,53.85
2023-03-22T11:06:19.073Z,53.77
2023-03-22T11:07:21.081Z,53.90
2023-03-22T11:08:15.079Z,54.18
2023-03-22T11:09:15.072Z,53.52
2023-03-22T11:10:19.193Z,53.32
2023-03-22T11:11:19.075Z,53.58
2023-03-22T11:12:13.073Z,52.70
2023-03-22T11:13:17.071Z,52.92
2023-03-22T11:14:19.070Z,52.83
2023-03-22T11:15:19.071Z,52.78
2023-03-22T11:16:11.100Z,52.39
2023-03-22T11:17:12.079Z,52.57
2023-03-22T11:18:14.078Z,52.09
2023-03-22T11:19:17.073Z,52.55
2023-03-22T11:20:17.212Z,52.42
2023-03-22T11:21:12.079Z,52.83
2023-03-22T11:22:19.072Z,52.54
2023-03-22T11:23:15.077Z,53.06
2023-03-22T11:24:14.072Z,53.08
2023-03-22T11:25:21.089Z,53.10
2023-03-22T11:26:14.092Z,53.27
2023-03-22T11:27:19.081Z,53.20
2023-03-22T11:28:21.076Z,53.12
2023-03-22T11:29:17.073Z,53.75
2023-03-22T11:30:18.068Z,53.76
2023-03-22T11:31:15.163Z,53.81
2023-03-22T11:32:19.107Z,53.41
2023-03-22T11:33:18.133Z,53.76
2023-03-22T11:34:16.073Z,53.76
2023-03-22T11:35:18.084Z,53.81
2023-03-22T11:36:18.084Z,52.80
2023-03-22T11:37:11.554Z,52.73
2023-03-22T11:38:19.963Z,53.03
2023-03-22T11:39:11.074Z,52.69
2023-03-22T11:40:17.133Z,52.46
2023-03-22T11:41:18.078Z,52.58
2023-03-22T11:42:17.077Z,52.26
2023-03-22T11:43:23.082Z,51.91
2023-03-22T11:44:13.091Z,52.00
2023-03-22T11:45:16.075Z,51.97
2023-03-22T11:46:11.092Z,52.13
2023-03-22T11:47:12.079Z,52.30
2023-03-22T11:48:17.182Z,52.75
2023-03-22T11:49:13.114Z,52.67
2023-03-22T11:50:19.080Z,52.93
2023-03-22T11:51:12.184Z,53.31
2023-03-22T11:52:12.076Z,53.64
2023-03-22T11:53:15.080Z,54.07
2023-03-22T11:54:15.087Z,54.30
2023-03-22T11:55:15.077Z,54.44
2023-03-22T11:56:16.077Z,54.69
2023-03-22T11:57:14.076Z,54.64
2023-03-22T11:58:15.086Z,54.47
2023-03-22T11:59:16.090Z,54.37
2023-03-22T12:00:20.156Z,54.51
2023-03-22T12:01:18.079Z,54.52
2023-03-22T12:02:21.114Z,54.38
2023-03-22T12:03:17.233Z,54.58
2023-03-22T12:04:16.112Z,54.79
2023-03-22T12:05:18.145Z,54.95
2023-03-22T12:06:21.136Z,54.62
2023-03-22T12:07:16.093Z,54.86
2023-03-22T12:08:19.080Z,54.96
2023-03-22T12:09:19.087Z,54.45
2023-03-22T12:10:21.090Z,54.92
2023-03-22T12:11:17.112Z,54.90
2023-03-22T12:12:19.078Z,54.74
2023-03-22T12:13:18.126Z,54.87
2023-03-22T12:14:21.089Z,54.75
2023-03-22T12:15:19.075Z,54.98
2023-03-22T12:16:14.129Z,54.62
2023-03-22T12:17:17.079Z,54.40
2023-03-22T12:18:21.123Z,54.25
2023-03-22T12:19:21.092Z,53.84
2023-03-22T12:20:19.087Z,54.04
2023-03-22T12:21:11.084Z,53.86
2023-03-22T12:22:15.080Z,53.95
2023-03-22T12:23:18.090Z,53.77
2023-03-22T12:24:19.091Z,53.62
2023-03-22T12:25:19.088Z,53.38
2023-03-22T12:26:19.097Z,53.64
2023-03-22T12:27:18.131Z,53.71
2023-03-22T12:28:15.090Z,53.79
2023-03-22T12:29:16.082Z,53.72
2023-03-22T12:30:21.083Z,53.60
2023-03-22T12:31:16.095Z,53.72
2023-03-22T12:32:21.096Z,53.33
2023-03-22T12:33:20.144Z,53.02
2023-03-22T12:34:15.102Z,53.07
2023-03-22T12:35:19.106Z,53.67
2023-03-22T12:36:16.115Z,52.78
2023-03-22T12:37:15.094Z,52.37
2023-03-22T12:38:21.084Z,52.54
2023-03-22T12:39:18.082Z,52.36
2023-03-22T12:40:18.087Z,51.45
2023-03-22T12:41:14.086Z,51.57
2023-03-22T12:42:21.085Z,51.96
2023-03-22T12:43:21.082Z,52.09
2023-03-22T12:44:21.085Z,51.71
2023-03-22T12:45:18.090Z,52.31
2023-03-22T12:46:20.111Z,52.42
2023-03-22T12:47:19.092Z,52.39
2023-03-22T12:48:19.202Z,52.58
2023-03-22T12:49:19.088Z,51.95
2023-03-22T12:50:19.089Z,52.55
2023-03-22T12:51:12.087Z,52.04
2023-03-22T12:52:19.093Z,52.16